Details From LPMA - Madeira
To LPFR - Faro
Flight Number -
Tags decoded
Created
Modified
Stats Distance 505 nm / 935 km
Max Altitude 0 ft / 0 m
Waypoints 2
Social Downloads 0
Likes 0
Share

Download

Looking for another format? Having issues loading an existing format? Contact us
Advertisement - Login to hide

Notes

Requested: LPMA LPFR

Route

LPMA LPFR

ID Type Via Altitude (ft/m) Position (lat/lon) Dist (leg/tot) Name
O LPMA APT - 0 / 0 32.69770 / -16.77445 - / 0 nm Madeira
O LPFR APT - 0 / 0 37.01534 / -7.97233 505 / 505 nm Faro

Altitude Profile

Advertisement - Login to hide

Weather


0- 5 10 15 20 25 30 35+ Temperature / °C

Clouds and Precipitation
Forecast for 2020-10-22 00:00 UTC. Updated 3 hours ago

Ground ~20,000 ft ~40,000 ft Winds

LPMA

Details ICAO LPMA (FNC)
Name Madeira/Funchal - Cristiano Ronaldo
Region Portugal
Timezone Atlantic/Madeira (UTC+1.0)
Stats Elevation 189 ft / 58 m (AMSL)
Location 32.697900° -16.774400°
Runways 1
Magnetic Variation 4.631° W

METAR

LPMA 220030Z 29008KT 9999 -SHRA SCT015 17/12 Q1015

Decode

TAF

TAF LPMA 212300Z 2200/2224 VRB05KT 9999 SCT015 TEMPO 2200/2206 34010KT PROB30 TEMPO 2209/2217 18010KT BECMG 2217/2219 34010KT

Decode

Departure Runways

ID Width Length Bearing (true/mag) Surface Threshold Overrun Markings Lighting
05 148 ft / 45 m 9,133 ft / 2,784 m 44.60° / 49.23° ASPHALT 482 ft / 147 m 0 ft / 0 m PREC-APP CENTERLINE EDGE THRESHOLD TDZ REIL-OMNI
23 148 ft / 45 m 9,133 ft / 2,784 m 224.61° / 229.24° ASPHALT 482 ft / 147 m 0 ft / 0 m PREC-APP CENTERLINE EDGE THRESHOLD TDZ REIL-OMNI

LPFR

Details ICAO LPFR (FAO)
Name Faro
Region Portugal
Timezone Europe/Lisbon (UTC+1.0)
Stats Elevation 22 ft / 7 m (AMSL)
Location 37.015300° -7.972320°
Runways 1
Magnetic Variation 1.595° W

METAR

LPFR 220030Z VRB01KT CAVOK 17/16 Q1011

Decode

TAF

TAF LPFR 212300Z 2200/2224 VRB05KT 9999 SCT018 PROB30 TEMPO 2200/2215 5000 SHRA SCT008 BKN015 FEW025TCU BECMG 2210/2212 23010KT BECMG 2217/2219 29007KT BECMG 2222/2224 01005KT

Decode

Destination Runways

ID Width Length Bearing (true/mag) Surface Threshold Overrun Markings Lighting
10 148 ft / 45 m 8,179 ft / 2,493 m 100.08° / 101.67° ASPHALT 148 ft / 45 m 0 ft / 0 m PREC-APP EDGE THRESHOLD REIL-OMNI
28 148 ft / 45 m 8,179 ft / 2,493 m 280.09° / 281.69° ASPHALT 144 ft / 44 m 0 ft / 0 m PREC-APP EDGE THRESHOLD REIL-OMNI

Approach Navaids

Runway Type Ident Frequency Range Bearing (true/mag) Slope Elevation
28 GS IIF 109.50 MHz 10 nm / 19 km 280.17° / 281.77 ° 3.00° 24 ft / 7 m (AMSL)
28 DME IIF 109.50 MHz 18 nm / 33 km - - 24 ft / 7 m (AMSL)
28 LOC-ILS IIF 109.50 MHz 18 nm / 33 km 280.08° / 281.68 ° - 22 ft / 7 m (AMSL)

Popular Alternatives